sensor_id;sensor_type;location;lat;lon;timestamp;noise_LAeq;noise_LA_min;noise_LA_max;noise_LA01;noise_LA95
17594;Laerm;8916;47.086;15.920;2023-04-28T00:00:25;49.06;47.86;50.26;;
17594;Laerm;8916;47.086;15.920;2023-04-28T00:02:55;49.06;47.88;50.09;;
17594;Laerm;8916;47.086;15.920;2023-04-28T00:05:25;49.07;47.93;50.19;;
17594;Laerm;8916;47.086;15.920;2023-04-28T00:07:55;49.07;47.91;50.27;;
17594;Laerm;8916;47.086;15.920;2023-04-28T00:10:24;49.07;48.05;50.24;;
17594;Laerm;8916;47.086;15.920;2023-04-28T00:12:53;49.07;47.77;50.33;;
17594;Laerm;8916;47.086;15.920;2023-04-28T00:15:22;49.07;47.90;50.37;;
17594;Laerm;8916;47.086;15.920;2023-04-28T00:17:51;49.09;47.91;50.48;;
17594;Laerm;8916;47.086;15.920;2023-04-28T00:20:22;49.08;48.00;50.37;;
17594;Laerm;8916;47.086;15.920;2023-04-28T00:22:51;49.08;47.93;50.36;;
17594;Laerm;8916;47.086;15.920;2023-04-28T00:25:20;49.09;48.08;50.30;;
17594;Laerm;8916;47.086;15.920;2023-04-28T00:27:49;49.10;47.84;50.15;;
17594;Laerm;8916;47.086;15.920;2023-04-28T00:30:19;49.08;48.05;50.16;;
17594;Laerm;8916;47.086;15.920;2023-04-28T00:32:48;49.08;47.95;50.14;;
17594;Laerm;8916;47.086;15.920;2023-04-28T00:35:17;49.08;48.00;50.14;;
17594;Laerm;8916;47.086;15.920;2023-04-28T00:37:48;49.09;48.02;50.24;;
17594;Laerm;8916;47.086;15.920;2023-04-28T00:40:17;49.08;48.07;50.16;;
17594;Laerm;8916;47.086;15.920;2023-04-28T00:42:46;49.08;47.57;50.43;;
17594;Laerm;8916;47.086;15.920;2023-04-28T00:45:15;49.09;48.03;50.15;;
17594;Laerm;8916;47.086;15.920;2023-04-28T00:47:44;49.09;47.98;50.37;;
17594;Laerm;8916;47.086;15.920;2023-04-28T00:50:15;49.09;47.93;50.25;;
17594;Laerm;8916;47.086;15.920;2023-04-28T00:52:47;49.09;47.93;50.25;;
17594;Laerm;8916;47.086;15.920;2023-04-28T00:55:16;49.10;48.00;50.11;;
17594;Laerm;8916;47.086;15.920;2023-04-28T00:57:45;49.09;47.95;50.22;;
17594;Laerm;8916;47.086;15.920;2023-04-28T01:00:16;49.11;47.86;50.27;;
17594;Laerm;8916;47.086;15.920;2023-04-28T01:02:45;49.10;48.00;50.17;;
17594;Laerm;8916;47.086;15.920;2023-04-28T01:05:14;49.09;48.07;50.58;;
17594;Laerm;8916;47.086;15.920;2023-04-28T01:07:45;49.10;47.83;50.29;;
17594;Laerm;8916;47.086;15.920;2023-04-28T01:10:15;49.10;48.02;50.24;;
17594;Laerm;8916;47.086;15.920;2023-04-28T01:12:44;49.10;47.98;50.24;;
17594;Laerm;8916;47.086;15.920;2023-04-28T01:15:16;49.10;47.79;50.21;;
17594;Laerm;8916;47.086;15.920;2023-04-28T01:17:47;49.09;48.03;50.40;;
17594;Laerm;8916;47.086;15.920;2023-04-28T01:20:16;49.09;47.98;50.18;;
17594;Laerm;8916;47.086;15.920;2023-04-28T01:22:45;49.10;47.96;50.24;;
17594;Laerm;8916;47.086;15.920;2023-04-28T01:25:16;49.09;47.95;50.45;;
17594;Laerm;8916;47.086;15.920;2023-04-28T01:27:45;49.10;48.00;50.11;;
17594;Laerm;8916;47.086;15.920;2023-04-28T01:30:15;49.09;47.96;50.23;;
17594;Laerm;8916;47.086;15.920;2023-04-28T01:32:44;49.10;48.00;50.21;;
17594;Laerm;8916;47.086;15.920;2023-04-28T01:35:13;49.08;48.00;50.12;;
17594;Laerm;8916;47.086;15.920;2023-04-28T01:37:42;49.09;48.03;50.30;;
17594;Laerm;8916;47.086;15.920;2023-04-28T01:40:12;49.10;47.91;50.56;;
17594;Laerm;8916;47.086;15.920;2023-04-28T01:42:43;49.09;47.91;50.21;;
17594;Laerm;8916;47.086;15.920;2023-04-28T01:45:12;49.10;48.07;50.38;;
17594;Laerm;8916;47.086;15.920;2023-04-28T01:47:42;49.09;47.86;50.24;;
17594;Laerm;8916;47.086;15.920;2023-04-28T01:50:12;49.09;47.88;50.51;;
17594;Laerm;8916;47.086;15.920;2023-04-28T01:52:41;49.10;48.02;50.57;;
17594;Laerm;8916;47.086;15.920;2023-04-28T01:55:10;49.10;48.02;50.11;;
17594;Laerm;8916;47.086;15.920;2023-04-28T01:57:40;49.11;48.13;50.17;;
17594;Laerm;8916;47.086;15.920;2023-04-28T02:00:11;49.10;48.02;50.27;;
17594;Laerm;8916;47.086;15.920;2023-04-28T02:02:47;49.10;48.03;50.31;;
17594;Laerm;8916;47.086;15.920;2023-04-28T02:05:17;49.10;47.72;50.21;;
17594;Laerm;8916;47.086;15.920;2023-04-28T02:07:47;49.10;48.08;50.28;;
17594;Laerm;8916;47.086;15.920;2023-04-28T02:10:17;49.11;47.98;50.25;;
17594;Laerm;8916;47.086;15.920;2023-04-28T02:12:46;49.10;47.98;50.13;;
17594;Laerm;8916;47.086;15.920;2023-04-28T02:15:18;49.09;48.07;50.37;;
17594;Laerm;8916;47.086;15.920;2023-04-28T02:17:47;49.11;48.00;50.21;;
17594;Laerm;8916;47.086;15.920;2023-04-28T02:20:16;49.12;48.02;50.41;;
17594;Laerm;8916;47.086;15.920;2023-04-28T02:22:45;49.12;48.07;50.47;;
17594;Laerm;8916;47.086;15.920;2023-04-28T02:25:15;49.12;47.81;50.25;;
17594;Laerm;8916;47.086;15.920;2023-04-28T02:27:44;49.13;48.05;50.48;;
17594;Laerm;8916;47.086;15.920;2023-04-28T02:30:13;49.13;47.96;50.21;;
17594;Laerm;8916;47.086;15.920;2023-04-28T02:32:44;49.14;48.13;50.35;;
17594;Laerm;8916;47.086;15.920;2023-04-28T02:35:16;49.14;47.90;50.26;;
17594;Laerm;8916;47.086;15.920;2023-04-28T02:37:45;49.14;47.98;50.26;;
17594;Laerm;8916;47.086;15.920;2023-04-28T02:40:14;49.15;48.03;50.17;;
17594;Laerm;8916;47.086;15.920;2023-04-28T02:42:43;49.14;48.10;50.48;;
17594;Laerm;8916;47.086;15.920;2023-04-28T02:45:13;49.15;47.98;50.31;;
17594;Laerm;8916;47.086;15.920;2023-04-28T02:47:43;49.15;48.02;50.21;;
17594;Laerm;8916;47.086;15.920;2023-04-28T02:50:12;49.14;47.98;50.34;;
17594;Laerm;8916;47.086;15.920;2023-04-28T02:52:42;49.14;47.91;50.27;;
17594;Laerm;8916;47.086;15.920;2023-04-28T02:55:11;49.14;47.86;50.42;;
17594;Laerm;8916;47.086;15.920;2023-04-28T02:57:51;49.14;47.68;50.37;;
17594;Laerm;8916;47.086;15.920;2023-04-28T03:00:20;49.14;48.02;50.27;;
17594;Laerm;8916;47.086;15.920;2023-04-28T03:02:52;49.14;47.98;50.32;;
17594;Laerm;8916;47.086;15.920;2023-04-28T03:05:21;49.14;48.16;50.39;;
17594;Laerm;8916;47.086;15.920;2023-04-28T03:07:50;49.14;48.03;50.35;;
17594;Laerm;8916;47.086;15.920;2023-04-28T03:10:20;49.13;47.96;50.24;;
17594;Laerm;8916;47.086;15.920;2023-04-28T03:12:49;49.14;48.10;50.55;;
17594;Laerm;8916;47.086;15.920;2023-04-28T03:15:18;49.15;48.07;50.21;;
17594;Laerm;8916;47.086;15.920;2023-04-28T03:17:47;49.15;48.10;50.26;;
17594;Laerm;8916;47.086;15.920;2023-04-28T03:20:19;49.15;48.03;50.15;;
17594;Laerm;8916;47.086;15.920;2023-04-28T03:22:48;49.17;48.15;50.42;;
17594;Laerm;8916;47.086;15.920;2023-04-28T03:25:17;49.16;48.05;50.26;;
17594;Laerm;8916;47.086;15.920;2023-04-28T03:27:49;49.16;48.02;50.39;;
17594;Laerm;8916;47.086;15.920;2023-04-28T03:30:19;49.18;48.05;50.30;;
17594;Laerm;8916;47.086;15.920;2023-04-28T03:32:48;49.16;48.10;50.44;;
17594;Laerm;8916;47.086;15.920;2023-04-28T03:35:18;49.17;48.07;50.33;;
17594;Laerm;8916;47.086;15.920;2023-04-28T03:37:48;49.16;48.03;50.37;;
17594;Laerm;8916;47.086;15.920;2023-04-28T03:40:18;49.16;48.07;50.40;;
17594;Laerm;8916;47.086;15.920;2023-04-28T03:43:09;49.17;48.12;50.35;;
17594;Laerm;8916;47.086;15.920;2023-04-28T03:45:44;49.18;48.13;50.33;;
17594;Laerm;8916;47.086;15.920;2023-04-28T03:48:13;49.17;48.05;50.44;;
17594;Laerm;8916;47.086;15.920;2023-04-28T03:50:44;49.18;48.15;50.40;;
17594;Laerm;8916;47.086;15.920;2023-04-28T03:53:14;49.19;48.21;50.25;;
17594;Laerm;8916;47.086;15.920;2023-04-28T03:55:44;49.18;48.07;50.32;;
17594;Laerm;8916;47.086;15.920;2023-04-28T03:58:13;49.19;48.07;50.26;;
17594;Laerm;8916;47.086;15.920;2023-04-28T04:00:42;49.19;48.08;50.30;;
17594;Laerm;8916;47.086;15.920;2023-04-28T04:03:11;49.19;48.16;50.34;;
17594;Laerm;8916;47.086;15.920;2023-04-28T04:05:45;49.21;48.10;50.42;;
17594;Laerm;8916;47.086;15.920;2023-04-28T04:08:14;49.18;48.16;50.39;;
17594;Laerm;8916;47.086;15.920;2023-04-28T04:10:43;49.19;48.03;50.42;;
17594;Laerm;8916;47.086;15.920;2023-04-28T04:13:14;49.19;48.18;50.26;;
17594;Laerm;8916;47.086;15.920;2023-04-28T04:15:43;49.19;48.16;50.27;;
17594;Laerm;8916;47.086;15.920;2023-04-28T04:18:13;49.19;47.98;50.33;;
17594;Laerm;8916;47.086;15.920;2023-04-28T04:21:04;49.19;47.90;50.35;;
17594;Laerm;8916;47.086;15.920;2023-04-28T04:23:33;49.18;47.96;50.36;;
17594;Laerm;8916;47.086;15.920;2023-04-28T04:26:02;49.18;48.09;50.43;;
17594;Laerm;8916;47.086;15.920;2023-04-28T04:28:32;49.18;48.16;50.35;;
17594;Laerm;8916;47.086;15.920;2023-04-28T04:31:01;49.18;48.07;50.26;;
17594;Laerm;8916;47.086;15.920;2023-04-28T04:33:32;49.16;48.02;50.26;;
17594;Laerm;8916;47.086;15.920;2023-04-28T04:36:07;49.16;47.88;50.39;;
17594;Laerm;8916;47.086;15.920;2023-04-28T04:38:36;49.16;48.12;50.34;;
17594;Laerm;8916;47.086;15.920;2023-04-28T04:41:14;49.15;48.05;50.27;;
17594;Laerm;8916;47.086;15.920;2023-04-28T04:43:44;49.14;47.88;50.20;;
17594;Laerm;8916;47.086;15.920;2023-04-28T04:46:13;49.14;47.86;50.20;;
17594;Laerm;8916;47.086;15.920;2023-04-28T04:48:42;49.14;48.10;50.24;;
17594;Laerm;8916;47.086;15.920;2023-04-28T04:51:13;49.13;47.96;50.32;;
17594;Laerm;8916;47.086;15.920;2023-04-28T04:53:42;49.14;48.12;50.35;;
17594;Laerm;8916;47.086;15.920;2023-04-28T04:56:12;49.12;48.07;50.14;;
17594;Laerm;8916;47.086;15.920;2023-04-28T04:58:42;49.13;48.18;50.20;;
17594;Laerm;8916;47.086;15.920;2023-04-28T05:01:32;49.13;47.96;50.49;;
17594;Laerm;8916;47.086;15.920;2023-04-28T05:04:01;49.12;48.07;50.25;;
17594;Laerm;8916;47.086;15.920;2023-04-28T05:06:32;49.12;48.05;50.11;;
17594;Laerm;8916;47.086;15.920;2023-04-28T05:09:01;49.12;47.90;50.30;;
17594;Laerm;8916;47.086;15.920;2023-04-28T05:11:32;49.12;47.93;50.39;;
17594;Laerm;8916;47.086;15.920;2023-04-28T05:14:03;49.12;48.08;50.21;;
17594;Laerm;8916;47.086;15.920;2023-04-28T05:16:33;49.11;47.93;50.39;;
17594;Laerm;8916;47.086;15.920;2023-04-28T05:19:23;49.11;47.84;50.33;;
17594;Laerm;8916;47.086;15.920;2023-04-28T05:21:54;49.11;48.00;50.35;;
17594;Laerm;8916;47.086;15.920;2023-04-28T05:24:24;49.10;48.10;50.10;;
17594;Laerm;8916;47.086;15.920;2023-04-28T05:26:55;49.10;48.00;50.29;;
17594;Laerm;8916;47.086;15.920;2023-04-28T05:29:26;49.11;48.05;50.24;;
17594;Laerm;8916;47.086;15.920;2023-04-28T05:31:55;49.10;47.91;50.26;;
17594;Laerm;8916;47.086;15.920;2023-04-28T05:34:25;49.10;48.00;50.28;;
17594;Laerm;8916;47.086;15.920;2023-04-28T05:36:55;49.10;48.07;50.10;;
17594;Laerm;8916;47.086;15.920;2023-04-28T05:39:27;49.08;47.95;50.37;;
17594;Laerm;8916;47.086;15.920;2023-04-28T05:42:00;49.08;48.03;50.44;;
17594;Laerm;8916;47.086;15.920;2023-04-28T05:44:30;49.09;48.08;50.08;;
17594;Laerm;8916;47.086;15.920;2023-04-28T05:47:00;49.09;48.08;50.27;;
17594;Laerm;8916;47.086;15.920;2023-04-28T05:49:29;49.08;47.83;50.45;;
17594;Laerm;8916;47.086;15.920;2023-04-28T05:51:59;49.07;48.03;50.16;;
17594;Laerm;8916;47.086;15.920;2023-04-28T05:54:29;49.07;47.96;50.40;;
17594;Laerm;8916;47.086;15.920;2023-04-28T05:57:01;49.07;47.98;50.16;;
17594;Laerm;8916;47.086;15.920;2023-04-28T05:59:30;49.06;48.00;50.37;;
17594;Laerm;8916;47.086;15.920;2023-04-28T06:02:00;49.06;48.02;50.21;;
17594;Laerm;8916;47.086;15.920;2023-04-28T06:04:29;49.06;48.05;50.46;;
17594;Laerm;8916;47.086;15.920;2023-04-28T06:07:00;49.05;47.96;50.21;;
17594;Laerm;8916;47.086;15.920;2023-04-28T06:09:30;49.05;47.86;50.29;;
17594;Laerm;8916;47.086;15.920;2023-04-28T06:11:59;49.05;47.96;50.38;;
17594;Laerm;8916;47.086;15.920;2023-04-28T06:14:30;49.03;47.86;50.17;;
17594;Laerm;8916;47.086;15.920;2023-04-28T06:16:59;49.04;47.96;50.14;;
17594;Laerm;8916;47.086;15.920;2023-04-28T06:19:28;49.02;47.90;50.10;;
17594;Laerm;8916;47.086;15.920;2023-04-28T06:21:58;49.02;47.95;50.04;;
17594;Laerm;8916;47.086;15.920;2023-04-28T06:24:28;49.00;47.86;50.20;;
17594;Laerm;8916;47.086;15.920;2023-04-28T06:26:58;48.99;47.96;50.13;;
17594;Laerm;8916;47.086;15.920;2023-04-28T06:29:28;48.99;47.95;50.15;;
17594;Laerm;8916;47.086;15.920;2023-04-28T06:31:57;48.98;47.93;50.21;;
17594;Laerm;8916;47.086;15.920;2023-04-28T06:34:26;48.97;47.86;50.26;;
17594;Laerm;8916;47.086;15.920;2023-04-28T06:36:57;48.96;47.95;50.16;;
17594;Laerm;8916;47.086;15.920;2023-04-28T06:39:28;48.95;47.77;50.21;;
17594;Laerm;8916;47.086;15.920;2023-04-28T06:41:57;48.96;47.83;50.19;;
17594;Laerm;8916;47.086;15.920;2023-04-28T06:44:28;48.95;47.72;50.01;;
17594;Laerm;8916;47.086;15.920;2023-04-28T06:46:58;48.95;47.81;49.96;;
17594;Laerm;8916;47.086;15.920;2023-04-28T06:49:28;48.96;47.67;50.07;;
17594;Laerm;8916;47.086;15.920;2023-04-28T06:51:59;48.95;47.70;50.12;;
17594;Laerm;8916;47.086;15.920;2023-04-28T06:54:31;48.95;47.88;49.98;;
17594;Laerm;8916;47.086;15.920;2023-04-28T06:57:00;48.95;47.93;50.27;;
17594;Laerm;8916;47.086;15.920;2023-04-28T06:59:30;48.95;47.81;50.47;;
17594;Laerm;8916;47.086;15.920;2023-04-28T07:01:59;48.95;47.67;50.01;;
17594;Laerm;8916;47.086;15.920;2023-04-28T07:04:28;48.94;47.77;50.20;;
17594;Laerm;8916;47.086;15.920;2023-04-28T07:06:57;48.94;47.79;50.19;;
17594;Laerm;8916;47.086;15.920;2023-04-28T07:09:26;48.93;47.83;50.15;;
17594;Laerm;8916;47.086;15.920;2023-04-28T07:11:59;48.91;47.84;50.11;;
17594;Laerm;8916;47.086;15.920;2023-04-28T07:14:28;48.89;47.76;50.19;;
17594;Laerm;8916;47.086;15.920;2023-04-28T07:16:58;48.88;47.79;50.04;;
17594;Laerm;8916;47.086;15.920;2023-04-28T07:19:27;48.90;47.79;50.07;;
17594;Laerm;8916;47.086;15.920;2023-04-28T07:21:56;48.89;47.77;50.06;;
17594;Laerm;8916;47.086;15.920;2023-04-28T07:24:25;48.89;47.91;50.23;;
17594;Laerm;8916;47.086;15.920;2023-04-28T07:26:55;48.89;47.72;50.18;;
17594;Laerm;8916;47.086;15.920;2023-04-28T07:29:26;48.89;47.74;50.10;;
17594;Laerm;8916;47.086;15.920;2023-04-28T07:32:00;48.88;47.88;50.22;;
17594;Laerm;8916;47.086;15.920;2023-04-28T07:34:34;48.87;47.74;50.03;;
17594;Laerm;8916;47.086;15.920;2023-04-28T07:37:04;48.85;47.84;49.96;;
17594;Laerm;8916;47.086;15.920;2023-04-28T07:39:34;48.85;47.65;50.04;;
17594;Laerm;8916;47.086;15.920;2023-04-28T07:42:03;48.86;47.30;50.06;;
17594;Laerm;8916;47.086;15.920;2023-04-28T07:44:34;48.87;47.83;50.35;;
17594;Laerm;8916;47.086;15.920;2023-04-28T07:47:03;48.86;47.79;50.08;;
17594;Laerm;8916;47.086;15.920;2023-04-28T07:49:32;48.87;47.79;50.29;;
17594;Laerm;8916;47.086;15.920;2023-04-28T07:52:01;48.87;47.90;50.21;;
17594;Laerm;8916;47.086;15.920;2023-04-28T07:54:30;48.88;47.84;50.16;;
17594;Laerm;8916;47.086;15.920;2023-04-28T07:57:03;48.84;47.74;49.97;;
17594;Laerm;8916;47.086;15.920;2023-04-28T07:59:34;48.83;47.76;50.00;;
17594;Laerm;8916;47.086;15.920;2023-04-28T08:02:03;48.81;47.76;49.96;;
17594;Laerm;8916;47.086;15.920;2023-04-28T08:04:33;48.81;47.81;49.97;;
17594;Laerm;8916;47.086;15.920;2023-04-28T08:07:08;48.81;47.63;50.19;;
17594;Laerm;8916;47.086;15.920;2023-04-28T08:09:37;48.82;47.72;50.06;;
17594;Laerm;8916;47.086;15.920;2023-04-28T08:12:08;48.84;47.83;49.91;;
17594;Laerm;8916;47.086;15.920;2023-04-28T08:14:38;48.84;47.76;50.28;;
17594;Laerm;8916;47.086;15.920;2023-04-28T08:17:08;48.85;47.67;50.08;;
17594;Laerm;8916;47.086;15.920;2023-04-28T08:19:37;48.86;47.65;50.04;;
17594;Laerm;8916;47.086;15.920;2023-04-28T08:22:06;48.87;47.55;49.94;;
17594;Laerm;8916;47.086;15.920;2023-04-28T08:24:35;48.88;47.81;50.03;;
17594;Laerm;8916;47.086;15.920;2023-04-28T08:27:04;48.88;47.72;50.08;;
17594;Laerm;8916;47.086;15.920;2023-04-28T08:29:33;48.87;47.88;50.04;;
17594;Laerm;8916;47.086;15.920;2023-04-28T08:32:04;48.87;47.83;49.97;;
17594;Laerm;8916;47.086;15.920;2023-04-28T08:34:33;48.88;47.90;50.22;;
17594;Laerm;8916;47.086;15.920;2023-04-28T08:37:03;48.89;47.79;50.31;;
17594;Laerm;8916;47.086;15.920;2023-04-28T08:39:33;48.88;47.79;50.01;;
17594;Laerm;8916;47.086;15.920;2023-04-28T08:42:03;48.90;47.81;50.24;;
17594;Laerm;8916;47.086;15.920;2023-04-28T08:44:36;48.90;47.76;49.90;;
17594;Laerm;8916;47.086;15.920;2023-04-28T08:47:12;48.89;47.79;50.01;;
17594;Laerm;8916;47.086;15.920;2023-04-28T08:49:41;48.90;47.72;50.14;;
17594;Laerm;8916;47.086;15.920;2023-04-28T08:52:16;48.89;47.79;50.22;;
17594;Laerm;8916;47.086;15.920;2023-04-28T08:54:46;48.91;47.68;50.06;;
17594;Laerm;8916;47.086;15.920;2023-04-28T08:57:19;48.90;47.46;50.03;;
17594;Laerm;8916;47.086;15.920;2023-04-28T08:59:48;48.90;47.72;50.04;;
17594;Laerm;8916;47.086;15.920;2023-04-28T09:02:19;48.91;47.88;50.22;;
17594;Laerm;8916;47.086;15.920;2023-04-28T09:04:48;48.91;47.81;50.29;;
17594;Laerm;8916;47.086;15.920;2023-04-28T09:07:18;48.90;47.79;50.27;;
17594;Laerm;8916;47.086;15.920;2023-04-28T09:09:47;48.91;47.76;50.03;;
17594;Laerm;8916;47.086;15.920;2023-04-28T09:12:17;48.89;47.77;49.97;;
17594;Laerm;8916;47.086;15.920;2023-04-28T09:14:57;48.89;47.76;50.02;;
17594;Laerm;8916;47.086;15.920;2023-04-28T09:17:29;48.88;47.76;50.34;;
17594;Laerm;8916;47.086;15.920;2023-04-28T09:19:59;48.88;47.72;49.98;;
17594;Laerm;8916;47.086;15.920;2023-04-28T09:22:28;48.87;47.79;50.01;;
17594;Laerm;8916;47.086;15.920;2023-04-28T09:25:10;48.88;47.76;50.07;;
17594;Laerm;8916;47.086;15.920;2023-04-28T09:27:39;48.88;47.77;50.17;;
17594;Laerm;8916;47.086;15.920;2023-04-28T09:30:09;48.88;47.74;50.05;;
17594;Laerm;8916;47.086;15.920;2023-04-28T09:32:40;48.87;47.52;49.97;;
17594;Laerm;8916;47.086;15.920;2023-04-28T09:35:09;48.86;47.70;50.19;;
17594;Laerm;8916;47.086;15.920;2023-04-28T09:37:38;48.85;47.68;49.95;;
17594;Laerm;8916;47.086;15.920;2023-04-28T09:40:10;48.85;47.55;50.11;;
17594;Laerm;8916;47.086;15.920;2023-04-28T09:42:41;48.85;47.57;50.08;;
17594;Laerm;8916;47.086;15.920;2023-04-28T09:45:13;48.85;47.72;50.05;;
17594;Laerm;8916;47.086;15.920;2023-04-28T09:47:45;48.85;47.81;50.30;;
17594;Laerm;8916;47.086;15.920;2023-04-28T09:50:16;48.84;47.70;50.19;;
17594;Laerm;8916;47.086;15.920;2023-04-28T09:52:55;48.83;47.67;50.13;;
17594;Laerm;8916;47.086;15.920;2023-04-28T09:55:27;48.84;47.77;50.04;;
17594;Laerm;8916;47.086;15.920;2023-04-28T09:58:04;48.82;47.68;50.07;;
17594;Laerm;8916;47.086;15.920;2023-04-28T10:00:35;48.83;47.72;50.20;;
17594;Laerm;8916;47.086;15.920;2023-04-28T10:03:08;48.83;47.70;49.82;;
17594;Laerm;8916;47.086;15.920;2023-04-28T10:05:39;48.85;47.70;50.21;;
17594;Laerm;8916;47.086;15.920;2023-04-28T10:08:08;48.85;47.83;49.98;;
17594;Laerm;8916;47.086;15.920;2023-04-28T10:10:39;48.85;47.77;50.07;;
17594;Laerm;8916;47.086;15.920;2023-04-28T10:13:09;48.85;47.79;49.96;;
17594;Laerm;8916;47.086;15.920;2023-04-28T10:15:39;48.85;47.67;49.94;;
17594;Laerm;8916;47.086;15.920;2023-04-28T10:18:11;48.85;47.79;50.15;;
17594;Laerm;8916;47.086;15.920;2023-04-28T10:20:43;48.84;47.72;50.08;;
17594;Laerm;8916;47.086;15.920;2023-04-28T10:23:30;48.83;47.63;49.96;;
17594;Laerm;8916;47.086;15.920;2023-04-28T10:26:10;48.83;47.63;49.91;;
17594;Laerm;8916;47.086;15.920;2023-04-28T10:28:45;48.83;47.79;50.23;;
17594;Laerm;8916;47.086;15.920;2023-04-28T10:31:16;48.82;47.72;50.03;;
17594;Laerm;8916;47.086;15.920;2023-04-28T10:33:49;48.81;47.54;49.88;;
17594;Laerm;8916;47.086;15.920;2023-04-28T10:36:47;48.81;47.50;50.04;;
17594;Laerm;8916;47.086;15.920;2023-04-28T10:39:17;48.80;47.67;49.96;;
17594;Laerm;8916;47.086;15.920;2023-04-28T10:41:47;48.80;47.76;49.96;;
17594;Laerm;8916;47.086;15.920;2023-04-28T10:44:40;48.81;47.70;50.03;;
17594;Laerm;8916;47.086;15.920;2023-04-28T10:47:10;48.81;47.72;50.08;;
17594;Laerm;8916;47.086;15.920;2023-04-28T10:50:08;48.81;47.61;50.03;;
17594;Laerm;8916;47.086;15.920;2023-04-28T10:52:47;48.81;47.61;50.31;;
17594;Laerm;8916;47.086;15.920;2023-04-28T10:55:29;48.82;47.42;50.04;;
17594;Laerm;8916;47.086;15.920;2023-04-28T10:58:31;48.82;47.76;50.08;;
17594;Laerm;8916;47.086;15.920;2023-04-28T11:01:25;48.81;47.68;50.00;;
17594;Laerm;8916;47.086;15.920;2023-04-28T11:03:56;48.80;47.57;50.04;;
17594;Laerm;8916;47.086;15.920;2023-04-28T11:06:34;48.81;47.70;50.04;;
17594;Laerm;8916;47.086;15.920;2023-04-28T11:09:47;48.79;47.70;50.46;;
17594;Laerm;8916;47.086;15.920;2023-04-28T11:12:17;48.78;47.65;49.77;;
17594;Laerm;8916;47.086;15.920;2023-04-28T11:14:46;48.78;47.54;50.25;;
17594;Laerm;8916;47.086;15.920;2023-04-28T11:17:15;48.78;47.65;49.94;;
17594;Laerm;8916;47.086;15.920;2023-04-28T11:19:46;48.78;47.58;49.90;;
17594;Laerm;8916;47.086;15.920;2023-04-28T11:22:21;48.75;47.52;49.79;;
17594;Laerm;8916;47.086;15.920;2023-04-28T11:24:58;48.76;47.54;49.95;;
17594;Laerm;8916;47.086;15.920;2023-04-28T11:27:29;48.76;47.57;49.84;;
17594;Laerm;8916;47.086;15.920;2023-04-28T11:29:59;48.76;47.57;49.99;;
17594;Laerm;8916;47.086;15.920;2023-04-28T11:32:31;48.75;47.67;49.95;;
17594;Laerm;8916;47.086;15.920;2023-04-28T11:35:00;48.75;47.67;49.92;;
17594;Laerm;8916;47.086;15.920;2023-04-28T11:37:32;48.75;47.57;49.91;;
17594;Laerm;8916;47.086;15.920;2023-04-28T11:40:09;48.75;47.54;49.88;;
17594;Laerm;8916;47.086;15.920;2023-04-28T11:42:46;48.75;47.54;49.95;;
17594;Laerm;8916;47.086;15.920;2023-04-28T11:45:16;48.75;47.76;50.04;;
17594;Laerm;8916;47.086;15.920;2023-04-28T11:47:45;48.75;47.57;49.97;;
17594;Laerm;8916;47.086;15.920;2023-04-28T11:50:14;48.74;47.68;49.92;;
17594;Laerm;8916;47.086;15.920;2023-04-28T11:52:49;48.72;47.50;50.08;;
17594;Laerm;8916;47.086;15.920;2023-04-28T11:55:20;48.72;47.65;50.25;;
17594;Laerm;8916;47.086;15.920;2023-04-28T11:58:18;48.72;47.63;49.91;;
17594;Laerm;8916;47.086;15.920;2023-04-28T12:01:07;48.73;47.59;50.07;;
17594;Laerm;8916;47.086;15.920;2023-04-28T12:03:43;48.73;47.52;49.91;;
17594;Laerm;8916;47.086;15.920;2023-04-28T12:06:16;48.72;47.65;49.87;;
17594;Laerm;8916;47.086;15.920;2023-04-28T12:08:48;48.71;47.55;50.04;;
17594;Laerm;8916;47.086;15.920;2023-04-28T12:11:18;48.72;47.67;49.93;;
17594;Laerm;8916;47.086;15.920;2023-04-28T12:14:06;48.70;47.61;49.78;;
17594;Laerm;8916;47.086;15.920;2023-04-28T12:16:40;48.71;47.60;50.04;;
17594;Laerm;8916;47.086;15.920;2023-04-28T12:19:11;48.70;47.52;49.85;;
17594;Laerm;8916;47.086;15.920;2023-04-28T12:21:42;48.70;47.61;49.91;;
17594;Laerm;8916;47.086;15.920;2023-04-28T12:24:18;48.70;47.57;49.83;;
17594;Laerm;8916;47.086;15.920;2023-04-28T12:26:48;48.69;47.57;49.80;;
17594;Laerm;8916;47.086;15.920;2023-04-28T12:29:37;48.70;47.67;49.87;;
17594;Laerm;8916;47.086;15.920;2023-04-28T12:32:08;48.68;47.57;49.94;;
17594;Laerm;8916;47.086;15.920;2023-04-28T12:34:39;48.67;47.50;49.80;;
17594;Laerm;8916;47.086;15.920;2023-04-28T12:37:09;48.68;47.50;49.83;;
17594;Laerm;8916;47.086;15.920;2023-04-28T12:39:40;48.68;47.63;49.97;;
17594;Laerm;8916;47.086;15.920;2023-04-28T12:42:10;48.70;47.63;49.71;;
17594;Laerm;8916;47.086;15.920;2023-04-28T12:44:39;48.70;47.54;49.79;;
17594;Laerm;8916;47.086;15.920;2023-04-28T12:47:10;48.73;47.67;50.03;;
17594;Laerm;8916;47.086;15.920;2023-04-28T12:49:39;48.74;47.54;49.96;;
17594;Laerm;8916;47.086;15.920;2023-04-28T12:52:09;48.74;47.61;49.96;;
17594;Laerm;8916;47.086;15.920;2023-04-28T12:54:40;48.72;47.70;49.91;;
17594;Laerm;8916;47.086;15.920;2023-04-28T12:57:14;48.73;47.74;49.80;;
17594;Laerm;8916;47.086;15.920;2023-04-28T12:59:44;48.74;47.57;49.87;;
17594;Laerm;8916;47.086;15.920;2023-04-28T13:02:14;48.74;47.67;49.89;;
17594;Laerm;8916;47.086;15.920;2023-04-28T13:04:44;48.74;47.55;50.03;;
17594;Laerm;8916;47.086;15.920;2023-04-28T13:07:14;48.74;47.61;49.93;;
17594;Laerm;8916;47.086;15.920;2023-04-28T13:09:44;48.73;47.67;49.90;;
17594;Laerm;8916;47.086;15.920;2023-04-28T13:12:14;48.73;47.48;49.89;;
17594;Laerm;8916;47.086;15.920;2023-04-28T13:14:43;48.72;47.57;49.96;;
17594;Laerm;8916;47.086;15.920;2023-04-28T13:17:12;48.74;47.57;49.89;;
17594;Laerm;8916;47.086;15.920;2023-04-28T13:19:42;48.74;47.70;50.01;;
17594;Laerm;8916;47.086;15.920;2023-04-28T13:22:12;48.73;47.61;50.10;;
17594;Laerm;8916;47.086;15.920;2023-04-28T13:24:41;48.74;47.70;49.92;;
17594;Laerm;8916;47.086;15.920;2023-04-28T13:27:12;48.75;47.52;49.93;;
17594;Laerm;8916;47.086;15.920;2023-04-28T13:29:41;48.75;47.57;49.98;;
17594;Laerm;8916;47.086;15.920;2023-04-28T13:32:10;48.76;47.54;50.17;;
17594;Laerm;8916;47.086;15.920;2023-04-28T13:34:39;48.76;47.68;49.98;;
17594;Laerm;8916;47.086;15.920;2023-04-28T13:37:09;48.77;47.65;49.96;;
17594;Laerm;8916;47.086;15.920;2023-04-28T13:39:38;48.76;47.59;50.14;;
17594;Laerm;8916;47.086;15.920;2023-04-28T13:42:07;48.73;47.70;50.00;;
17594;Laerm;8916;47.086;15.920;2023-04-28T13:44:37;48.74;47.72;50.01;;
17594;Laerm;8916;47.086;15.920;2023-04-28T13:47:06;48.73;47.55;49.72;;
17594;Laerm;8916;47.086;15.920;2023-04-28T13:49:36;48.74;47.65;49.96;;
17594;Laerm;8916;47.086;15.920;2023-04-28T13:52:08;48.74;47.61;49.82;;
17594;Laerm;8916;47.086;15.920;2023-04-28T13:54:38;48.74;47.36;50.03;;
17594;Laerm;8916;47.086;15.920;2023-04-28T13:57:07;48.75;47.55;50.28;;
17594;Laerm;8916;47.086;15.920;2023-04-28T13:59:37;48.75;47.57;50.13;;
17594;Laerm;8916;47.086;15.920;2023-04-28T14:02:07;48.76;47.65;49.94;;
17594;Laerm;8916;47.086;15.920;2023-04-28T14:04:38;48.77;47.50;49.94;;
17594;Laerm;8916;47.086;15.920;2023-04-28T14:07:15;48.75;47.72;49.87;;